sensor_id;sensor_type;location;lat;lon;timestamp;pressure;altitude;pressure_sealevel;temperature;humidity
61898;BME280;47850;50.274;18.908;2023-05-13T00:00:27;98475.41;;;11.32;49.88
61898;BME280;47850;50.274;18.908;2023-05-13T00:03:10;98474.45;;;11.25;50.09
61898;BME280;47850;50.274;18.908;2023-05-13T00:05:38;98470.39;;;11.19;50.78
61898;BME280;47850;50.274;18.908;2023-05-13T00:08:06;98470.03;;;11.11;50.74
61898;BME280;47850;50.274;18.908;2023-05-13T00:10:34;98468.23;;;11.03;50.78
61898;BME280;47850;50.274;18.908;2023-05-13T00:13:02;98471.23;;;10.97;51.09
61898;BME280;47850;50.274;18.908;2023-05-13T00:15:30;98468.03;;;10.92;51.62
61898;BME280;47850;50.274;18.908;2023-05-13T00:17:57;98463.55;;;10.89;52.23
61898;BME280;47850;50.274;18.908;2023-05-13T00:20:25;98464.00;;;10.88;52.44
61898;BME280;47850;50.274;18.908;2023-05-13T00:22:53;98463.85;;;10.84;52.90
61898;BME280;47850;50.274;18.908;2023-05-13T00:25:20;98465.02;;;10.79;53.00
61898;BME280;47850;50.274;18.908;2023-05-13T00:27:48;98466.48;;;10.77;53.04
61898;BME280;47850;50.274;18.908;2023-05-13T00:30:16;98468.09;;;10.76;53.16
61898;BME280;47850;50.274;18.908;2023-05-13T00:32:43;98467.73;;;10.75;53.02
61898;BME280;47850;50.274;18.908;2023-05-13T00:35:11;98470.19;;;10.75;53.10
61898;BME280;47850;50.274;18.908;2023-05-13T00:37:39;98470.63;;;10.73;53.21
61898;BME280;47850;50.274;18.908;2023-05-13T00:40:09;98471.90;;;10.72;53.70
61898;BME280;47850;50.274;18.908;2023-05-13T00:42:42;98467.76;;;10.72;53.45
61898;BME280;47850;50.274;18.908;2023-05-13T00:45:10;98473.65;;;10.72;53.14
61898;BME280;47850;50.274;18.908;2023-05-13T00:47:41;98473.80;;;10.72;52.99
61898;BME280;47850;50.274;18.908;2023-05-13T00:50:09;98475.75;;;10.71;53.10
61898;BME280;47850;50.274;18.908;2023-05-13T00:52:38;98480.14;;;10.68;53.08
61898;BME280;47850;50.274;18.908;2023-05-13T00:55:06;98478.64;;;10.62;53.45
61898;BME280;47850;50.274;18.908;2023-05-13T00:57:34;98480.11;;;10.58;53.55
61898;BME280;47850;50.274;18.908;2023-05-13T01:00:02;98476.91;;;10.53;53.57
61898;BME280;47850;50.274;18.908;2023-05-13T01:07:33;98487.11;;;10.31;54.30
61898;BME280;47850;50.274;18.908;2023-05-13T01:10:10;98486.69;;;10.24;54.45
61898;BME280;47850;50.274;18.908;2023-05-13T01:12:40;98485.16;;;10.17;54.96
61898;BME280;47850;50.274;18.908;2023-05-13T01:15:11;98485.14;;;10.11;55.25
61898;BME280;47850;50.274;18.908;2023-05-13T01:17:43;98484.48;;;10.04;55.24
61898;BME280;47850;50.274;18.908;2023-05-13T01:20:14;98485.36;;;10.00;55.24
61898;BME280;47850;50.274;18.908;2023-05-13T01:22:44;98487.89;;;9.95;55.30
61898;BME280;47850;50.274;18.908;2023-05-13T01:25:12;98492.37;;;9.90;55.53
61898;BME280;47850;50.274;18.908;2023-05-13T01:27:40;98492.36;;;9.83;55.72
61898;BME280;47850;50.274;18.908;2023-05-13T01:30:08;98497.73;;;9.77;55.76
61898;BME280;47850;50.274;18.908;2023-05-13T01:32:36;98492.74;;;9.71;56.08
61898;BME280;47850;50.274;18.908;2023-05-13T01:35:05;98499.33;;;9.63;56.12
61898;BME280;47850;50.274;18.908;2023-05-13T01:37:34;98496.64;;;9.54;56.46
61898;BME280;47850;50.274;18.908;2023-05-13T01:40:03;98497.99;;;9.46;56.46
61898;BME280;47850;50.274;18.908;2023-05-13T01:42:32;98499.28;;;9.39;56.80
61898;BME280;47850;50.274;18.908;2023-05-13T01:45:01;98503.30;;;9.34;56.93
61898;BME280;47850;50.274;18.908;2023-05-13T01:47:29;98500.72;;;9.26;57.17
61898;BME280;47850;50.274;18.908;2023-05-13T01:49:57;98497.58;;;9.20;57.38
61898;BME280;47850;50.274;18.908;2023-05-13T01:52:24;98494.17;;;9.16;57.89
61898;BME280;47850;50.274;18.908;2023-05-13T01:54:52;98492.70;;;9.14;58.30
61898;BME280;47850;50.274;18.908;2023-05-13T01:57:19;98491.02;;;9.10;58.78
61898;BME280;47850;50.274;18.908;2023-05-13T01:59:47;98495.46;;;9.06;59.13
61898;BME280;47850;50.274;18.908;2023-05-13T02:02:15;98493.17;;;9.00;59.04
61898;BME280;47850;50.274;18.908;2023-05-13T02:04:43;98497.14;;;8.94;59.26
61898;BME280;47850;50.274;18.908;2023-05-13T02:07:10;98492.13;;;8.90;59.71
61898;BME280;47850;50.274;18.908;2023-05-13T02:09:38;98494.79;;;8.86;59.53
61898;BME280;47850;50.274;18.908;2023-05-13T02:12:06;98494.60;;;8.84;59.53
61898;BME280;47850;50.274;18.908;2023-05-13T02:14:34;98497.69;;;8.83;59.72
61898;BME280;47850;50.274;18.908;2023-05-13T02:17:02;98499.96;;;8.79;60.07
61898;BME280;47850;50.274;18.908;2023-05-13T02:19:30;98501.91;;;8.74;60.12
61898;BME280;47850;50.274;18.908;2023-05-13T02:21:57;98503.37;;;8.72;60.16
61898;BME280;47850;50.274;18.908;2023-05-13T02:24:25;98501.09;;;8.70;60.37
61898;BME280;47850;50.274;18.908;2023-05-13T02:26:53;98498.25;;;8.69;60.44
61898;BME280;47850;50.274;18.908;2023-05-13T02:29:21;98500.18;;;8.68;60.39
61898;BME280;47850;50.274;18.908;2023-05-13T02:31:49;98501.55;;;8.66;60.80
61898;BME280;47850;50.274;18.908;2023-05-13T02:34:16;98499.42;;;8.64;60.72
61898;BME280;47850;50.274;18.908;2023-05-13T02:36:44;98498.92;;;8.61;60.80
61898;BME280;47850;50.274;18.908;2023-05-13T02:39:12;98499.03;;;8.58;60.97
61898;BME280;47850;50.274;18.908;2023-05-13T02:41:39;98494.86;;;8.54;60.91
61898;BME280;47850;50.274;18.908;2023-05-13T02:44:07;98494.98;;;8.51;61.03
61898;BME280;47850;50.274;18.908;2023-05-13T02:46:35;98496.09;;;8.49;61.22
61898;BME280;47850;50.274;18.908;2023-05-13T02:49:03;98497.53;;;8.50;61.16
61898;BME280;47850;50.274;18.908;2023-05-13T02:51:30;98499.63;;;8.52;60.89
61898;BME280;47850;50.274;18.908;2023-05-13T02:53:58;98498.94;;;8.51;60.96
61898;BME280;47850;50.274;18.908;2023-05-13T02:56:25;98504.15;;;8.51;61.12
61898;BME280;47850;50.274;18.908;2023-05-13T02:58:53;98504.63;;;8.52;61.32
61898;BME280;47850;50.274;18.908;2023-05-13T03:01:21;98510.31;;;8.54;61.00
61898;BME280;47850;50.274;18.908;2023-05-13T03:03:48;98507.70;;;8.54;61.06
61898;BME280;47850;50.274;18.908;2023-05-13T03:06:16;98512.42;;;8.54;61.24
61898;BME280;47850;50.274;18.908;2023-05-13T03:08:44;98512.56;;;8.55;61.70
61898;BME280;47850;50.274;18.908;2023-05-13T03:11:11;98516.17;;;8.57;61.53
61898;BME280;47850;50.274;18.908;2023-05-13T03:13:39;98520.70;;;8.56;61.80
61898;BME280;47850;50.274;18.908;2023-05-13T03:16:07;98520.52;;;8.54;61.93
61898;BME280;47850;50.274;18.908;2023-05-13T03:18:34;98525.19;;;8.54;61.72
61898;BME280;47850;50.274;18.908;2023-05-13T03:21:02;98525.20;;;8.56;61.60
61898;BME280;47850;50.274;18.908;2023-05-13T03:23:31;98525.54;;;8.59;61.76
61898;BME280;47850;50.274;18.908;2023-05-13T03:25:59;98526.05;;;8.62;61.69
61898;BME280;47850;50.274;18.908;2023-05-13T03:28:28;98526.54;;;8.64;61.81
61898;BME280;47850;50.274;18.908;2023-05-13T03:30:56;98529.65;;;8.67;61.73
61898;BME280;47850;50.274;18.908;2023-05-13T03:33:23;98529.72;;;8.69;61.62
61898;BME280;47850;50.274;18.908;2023-05-13T03:35:51;98529.31;;;8.70;61.53
61898;BME280;47850;50.274;18.908;2023-05-13T03:38:19;98535.73;;;8.74;61.52
61898;BME280;47850;50.274;18.908;2023-05-13T03:40:46;98533.91;;;8.79;61.42
61898;BME280;47850;50.274;18.908;2023-05-13T03:43:14;98531.70;;;8.84;61.49
61898;BME280;47850;50.274;18.908;2023-05-13T03:45:42;98538.17;;;8.90;61.35
61898;BME280;47850;50.274;18.908;2023-05-13T03:48:14;98535.59;;;8.98;61.29
61898;BME280;47850;50.274;18.908;2023-05-13T03:50:41;98540.61;;;9.06;61.31
61898;BME280;47850;50.274;18.908;2023-05-13T03:53:09;98545.83;;;9.13;61.09
61898;BME280;47850;50.274;18.908;2023-05-13T03:55:37;98545.05;;;9.20;61.46
61898;BME280;47850;50.274;18.908;2023-05-13T03:58:12;98549.10;;;9.25;61.07
61898;BME280;47850;50.274;18.908;2023-05-13T04:00:40;98549.93;;;9.29;61.15
61898;BME280;47850;50.274;18.908;2023-05-13T04:03:08;98556.40;;;9.36;61.32
61898;BME280;47850;50.274;18.908;2023-05-13T04:05:36;98560.73;;;9.40;61.14
61898;BME280;47850;50.274;18.908;2023-05-13T04:08:04;98557.00;;;9.44;61.16
61898;BME280;47850;50.274;18.908;2023-05-13T04:10:32;98562.51;;;9.49;61.14
61898;BME280;47850;50.274;18.908;2023-05-13T04:13:00;98564.33;;;9.55;61.13
61898;BME280;47850;50.274;18.908;2023-05-13T04:15:27;98562.88;;;9.62;61.17
61898;BME280;47850;50.274;18.908;2023-05-13T04:17:56;98566.84;;;9.64;60.87
61898;BME280;47850;50.274;18.908;2023-05-13T04:20:23;98569.82;;;9.67;60.88
61898;BME280;47850;50.274;18.908;2023-05-13T04:22:53;98572.10;;;9.68;60.62
61898;BME280;47850;50.274;18.908;2023-05-13T04:25:21;98571.67;;;9.70;60.89
61898;BME280;47850;50.274;18.908;2023-05-13T04:27:49;98574.72;;;9.73;60.66
61898;BME280;47850;50.274;18.908;2023-05-13T04:30:16;98575.11;;;9.79;60.72
61898;BME280;47850;50.274;18.908;2023-05-13T04:32:45;98576.92;;;9.85;60.89
61898;BME280;47850;50.274;18.908;2023-05-13T04:35:13;98574.50;;;9.89;60.76
61898;BME280;47850;50.274;18.908;2023-05-13T04:37:41;98576.47;;;9.97;60.48
61898;BME280;47850;50.274;18.908;2023-05-13T04:40:08;98579.98;;;10.02;59.89
61898;BME280;47850;50.274;18.908;2023-05-13T04:42:36;98583.79;;;10.08;59.98
61898;BME280;47850;50.274;18.908;2023-05-13T04:45:04;98587.23;;;10.13;59.87
61898;BME280;47850;50.274;18.908;2023-05-13T04:47:32;98587.58;;;10.19;60.08
61898;BME280;47850;50.274;18.908;2023-05-13T04:50:04;98594.54;;;10.25;59.73
61898;BME280;47850;50.274;18.908;2023-05-13T04:52:32;98592.98;;;10.31;59.99
61898;BME280;47850;50.274;18.908;2023-05-13T04:55:00;98591.08;;;10.36;59.55
61898;BME280;47850;50.274;18.908;2023-05-13T04:57:27;98593.95;;;10.41;59.27
61898;BME280;47850;50.274;18.908;2023-05-13T04:59:55;98597.23;;;10.41;58.86
61898;BME280;47850;50.274;18.908;2023-05-13T05:02:23;98590.46;;;10.41;58.62
61898;BME280;47850;50.274;18.908;2023-05-13T05:04:50;98593.31;;;10.43;58.39
61898;BME280;47850;50.274;18.908;2023-05-13T05:07:18;98588.88;;;10.43;58.37
61898;BME280;47850;50.274;18.908;2023-05-13T05:09:46;98587.30;;;10.46;58.60
61898;BME280;47850;50.274;18.908;2023-05-13T05:12:14;98590.98;;;10.54;59.06
61898;BME280;47850;50.274;18.908;2023-05-13T05:14:42;98594.86;;;10.61;58.73
61898;BME280;47850;50.274;18.908;2023-05-13T05:17:09;98602.98;;;10.68;59.12
61898;BME280;47850;50.274;18.908;2023-05-13T05:19:37;98605.58;;;10.74;58.74
61898;BME280;47850;50.274;18.908;2023-05-13T05:22:04;98606.82;;;10.78;58.45
61898;BME280;47850;50.274;18.908;2023-05-13T05:24:32;98610.53;;;10.83;58.02
61898;BME280;47850;50.274;18.908;2023-05-13T05:27:00;98616.02;;;10.90;58.14
61898;BME280;47850;50.274;18.908;2023-05-13T05:29:28;98618.80;;;11.00;58.40
61898;BME280;47850;50.274;18.908;2023-05-13T05:31:56;98618.77;;;11.12;58.16
61898;BME280;47850;50.274;18.908;2023-05-13T05:34:23;98614.80;;;11.22;57.20
61898;BME280;47850;50.274;18.908;2023-05-13T05:36:51;98617.65;;;11.30;56.90
61898;BME280;47850;50.274;18.908;2023-05-13T05:39:21;98614.52;;;11.40;56.34
61898;BME280;47850;50.274;18.908;2023-05-13T05:41:48;98612.93;;;11.50;56.14
61898;BME280;47850;50.274;18.908;2023-05-13T05:44:16;98612.39;;;11.66;56.06
61898;BME280;47850;50.274;18.908;2023-05-13T05:46:44;98613.02;;;11.84;55.88
61898;BME280;47850;50.274;18.908;2023-05-13T05:49:12;98613.35;;;11.99;55.08
61898;BME280;47850;50.274;18.908;2023-05-13T05:51:39;98618.99;;;12.08;54.75
61898;BME280;47850;50.274;18.908;2023-05-13T05:54:07;98617.48;;;12.15;54.59
61898;BME280;47850;50.274;18.908;2023-05-13T05:56:34;98616.34;;;12.24;54.29
61898;BME280;47850;50.274;18.908;2023-05-13T05:59:02;98618.41;;;12.34;54.06
61898;BME280;47850;50.274;18.908;2023-05-13T06:01:30;98624.11;;;12.44;53.66
61898;BME280;47850;50.274;18.908;2023-05-13T06:04:03;98621.61;;;12.52;53.48
61898;BME280;47850;50.274;18.908;2023-05-13T06:06:31;98626.15;;;12.58;53.49
61898;BME280;47850;50.274;18.908;2023-05-13T06:08:58;98633.11;;;12.65;53.03
61898;BME280;47850;50.274;18.908;2023-05-13T06:11:26;98630.39;;;12.69;52.95
61898;BME280;47850;50.274;18.908;2023-05-13T06:13:54;98629.69;;;12.72;53.41
61898;BME280;47850;50.274;18.908;2023-05-13T06:16:23;98628.75;;;12.76;53.14
61898;BME280;47850;50.274;18.908;2023-05-13T06:18:52;98631.16;;;12.81;53.37
61898;BME280;47850;50.274;18.908;2023-05-13T06:21:20;98630.30;;;12.89;52.85
61898;BME280;47850;50.274;18.908;2023-05-13T06:23:48;98634.56;;;13.00;52.51
61898;BME280;47850;50.274;18.908;2023-05-13T06:26:16;98630.49;;;13.07;52.08
61898;BME280;47850;50.274;18.908;2023-05-13T06:28:43;98632.99;;;13.19;51.97
61898;BME280;47850;50.274;18.908;2023-05-13T06:31:11;98633.90;;;13.33;51.77
61898;BME280;47850;50.274;18.908;2023-05-13T06:33:39;98633.36;;;13.48;51.27
61898;BME280;47850;50.274;18.908;2023-05-13T06:36:07;98634.39;;;13.58;50.44
61898;BME280;47850;50.274;18.908;2023-05-13T06:38:35;98634.11;;;13.70;50.39
61898;BME280;47850;50.274;18.908;2023-05-13T06:41:03;98635.69;;;13.84;50.10
61898;BME280;47850;50.274;18.908;2023-05-13T06:43:31;98634.78;;;13.95;49.72
61898;BME280;47850;50.274;18.908;2023-05-13T06:45:58;98633.58;;;14.06;49.80
61898;BME280;47850;50.274;18.908;2023-05-13T06:48:27;98630.95;;;14.19;49.90
61898;BME280;47850;50.274;18.908;2023-05-13T06:50:55;98629.80;;;14.30;49.25
61898;BME280;47850;50.274;18.908;2023-05-13T06:53:22;98628.60;;;14.35;48.48
61898;BME280;47850;50.274;18.908;2023-05-13T06:55:50;98631.80;;;14.41;48.55
61898;BME280;47850;50.274;18.908;2023-05-13T06:58:18;98632.49;;;14.45;48.13
61898;BME280;47850;50.274;18.908;2023-05-13T07:00:46;98632.55;;;14.44;47.89
61898;BME280;47850;50.274;18.908;2023-05-13T07:03:13;98632.99;;;14.46;48.15
61898;BME280;47850;50.274;18.908;2023-05-13T07:05:41;98632.24;;;14.51;48.30
61898;BME280;47850;50.274;18.908;2023-05-13T07:08:09;98631.90;;;14.59;48.06
61898;BME280;47850;50.274;18.908;2023-05-13T07:10:37;98627.73;;;14.63;47.62
61898;BME280;47850;50.274;18.908;2023-05-13T07:13:05;98626.71;;;14.68;47.69
61898;BME280;47850;50.274;18.908;2023-05-13T07:15:32;98621.33;;;14.71;46.96
61898;BME280;47850;50.274;18.908;2023-05-13T07:18:02;98620.11;;;14.74;46.74
61898;BME280;47850;50.274;18.908;2023-05-13T07:20:30;98613.31;;;14.77;46.66
61898;BME280;47850;50.274;18.908;2023-05-13T07:22:58;98611.43;;;14.84;46.80
61898;BME280;47850;50.274;18.908;2023-05-13T07:25:25;98610.83;;;14.91;46.09
61898;BME280;47850;50.274;18.908;2023-05-13T07:27:53;98611.33;;;14.96;46.08
61898;BME280;47850;50.274;18.908;2023-05-13T07:30:21;98602.23;;;15.03;45.75
61898;BME280;47850;50.274;18.908;2023-05-13T07:32:48;98606.25;;;15.10;45.29
61898;BME280;47850;50.274;18.908;2023-05-13T07:35:16;98603.08;;;15.16;44.92
61898;BME280;47850;50.274;18.908;2023-05-13T07:37:44;98605.10;;;15.23;45.03
61898;BME280;47850;50.274;18.908;2023-05-13T07:40:11;98605.80;;;15.31;44.88
61898;BME280;47850;50.274;18.908;2023-05-13T07:42:40;98608.54;;;15.40;44.34
61898;BME280;47850;50.274;18.908;2023-05-13T07:45:10;98608.23;;;15.43;43.99
61898;BME280;47850;50.274;18.908;2023-05-13T07:47:38;98603.05;;;15.45;43.86
61898;BME280;47850;50.274;18.908;2023-05-13T07:50:06;98603.88;;;15.52;44.56
61898;BME280;47850;50.274;18.908;2023-05-13T07:52:34;98606.75;;;15.63;44.48
61898;BME280;47850;50.274;18.908;2023-05-13T07:55:02;98608.02;;;15.70;43.58
61898;BME280;47850;50.274;18.908;2023-05-13T07:57:29;98605.61;;;15.73;43.18
61898;BME280;47850;50.274;18.908;2023-05-13T07:59:57;98601.11;;;15.77;43.24
61898;BME280;47850;50.274;18.908;2023-05-13T08:02:25;98598.66;;;15.86;43.55
61898;BME280;47850;50.274;18.908;2023-05-13T08:04:53;98596.90;;;15.92;43.17
61898;BME280;47850;50.274;18.908;2023-05-13T08:07:21;98597.20;;;15.99;43.41
61898;BME280;47850;50.274;18.908;2023-05-13T08:09:49;98591.08;;;16.10;42.71
61898;BME280;47850;50.274;18.908;2023-05-13T08:12:19;98591.52;;;16.31;42.77
61898;BME280;47850;50.274;18.908;2023-05-13T08:14:47;98596.41;;;16.58;42.04
61898;BME280;47850;50.274;18.908;2023-05-13T08:17:14;98597.81;;;16.85;41.84
61898;BME280;47850;50.274;18.908;2023-05-13T08:19:44;98599.32;;;17.08;40.28
61898;BME280;47850;50.274;18.908;2023-05-13T08:22:12;98600.27;;;17.20;39.70
61898;BME280;47850;50.274;18.908;2023-05-13T08:24:40;98597.72;;;17.22;38.78
61898;BME280;47850;50.274;18.908;2023-05-13T08:27:09;98598.91;;;17.19;38.75
61898;BME280;47850;50.274;18.908;2023-05-13T08:29:37;98592.77;;;17.13;38.82
61898;BME280;47850;50.274;18.908;2023-05-13T08:32:04;98594.60;;;17.11;38.97
61898;BME280;47850;50.274;18.908;2023-05-13T08:34:32;98599.35;;;17.18;39.49
61898;BME280;47850;50.274;18.908;2023-05-13T08:37:00;98601.61;;;17.26;39.48
61898;BME280;47850;50.274;18.908;2023-05-13T08:39:28;98600.77;;;17.32;39.24
61898;BME280;47850;50.274;18.908;2023-05-13T08:41:56;98608.14;;;17.53;38.67
61898;BME280;47850;50.274;18.908;2023-05-13T08:44:24;98610.15;;;17.77;37.51
61898;BME280;47850;50.274;18.908;2023-05-13T08:46:59;98608.98;;;17.88;37.13
61898;BME280;47850;50.274;18.908;2023-05-13T08:49:28;98608.18;;;17.96;37.59
61898;BME280;47850;50.274;18.908;2023-05-13T08:51:56;98611.36;;;18.07;37.58
61898;BME280;47850;50.274;18.908;2023-05-13T08:54:23;98611.39;;;18.16;36.50
61898;BME280;47850;50.274;18.908;2023-05-13T08:56:52;98609.98;;;18.10;36.19
61898;BME280;47850;50.274;18.908;2023-05-13T08:59:19;98612.04;;;18.06;36.13
61898;BME280;47850;50.274;18.908;2023-05-13T09:01:47;98608.27;;;18.10;36.76
61898;BME280;47850;50.274;18.908;2023-05-13T09:04:17;98608.61;;;18.12;36.51
61898;BME280;47850;50.274;18.908;2023-05-13T09:06:46;98608.35;;;18.21;36.82
61898;BME280;47850;50.274;18.908;2023-05-13T09:09:14;98610.52;;;18.30;36.65
61898;BME280;47850;50.274;18.908;2023-05-13T09:11:41;98606.39;;;18.36;36.07
61898;BME280;47850;50.274;18.908;2023-05-13T09:14:10;98603.77;;;18.39;36.04
61898;BME280;47850;50.274;18.908;2023-05-13T09:16:40;98601.16;;;18.50;35.35
61898;BME280;47850;50.274;18.908;2023-05-13T09:19:09;98604.94;;;18.76;35.76
61898;BME280;47850;50.274;18.908;2023-05-13T09:21:37;98608.44;;;19.12;35.45
61898;BME280;47850;50.274;18.908;2023-05-13T09:26:34;98605.95;;;19.64;33.64
61898;BME280;47850;50.274;18.908;2023-05-13T09:29:19;98604.09;;;19.61;31.85
61898;BME280;47850;50.274;18.908;2023-05-13T09:31:51;98607.22;;;19.40;32.22
61898;BME280;47850;50.274;18.908;2023-05-13T09:34:23;98602.39;;;19.41;32.41
61898;BME280;47850;50.274;18.908;2023-05-13T09:36:55;98598.50;;;19.49;32.17
61898;BME280;47850;50.274;18.908;2023-05-13T09:39:24;98600.39;;;19.57;31.74
61898;BME280;47850;50.274;18.908;2023-05-13T09:41:52;98597.41;;;19.54;31.37
61898;BME280;47850;50.274;18.908;2023-05-13T09:44:20;98601.52;;;19.35;31.94
61898;BME280;47850;50.274;18.908;2023-05-13T09:46:49;98602.92;;;19.26;32.05
61898;BME280;47850;50.274;18.908;2023-05-13T09:49:17;98603.56;;;19.22;31.81
61898;BME280;47850;50.274;18.908;2023-05-13T09:51:48;98601.28;;;19.27;32.07
61898;BME280;47850;50.274;18.908;2023-05-13T09:54:16;98594.31;;;19.48;32.25
61898;BME280;47850;50.274;18.908;2023-05-13T09:56:44;98593.32;;;19.55;30.92
61898;BME280;47850;50.274;18.908;2023-05-13T09:59:11;98597.88;;;19.40;30.63
61898;BME280;47850;50.274;18.908;2023-05-13T10:01:39;98598.37;;;19.37;31.07
61898;BME280;47850;50.274;18.908;2023-05-13T10:04:07;98594.42;;;19.37;31.23
61898;BME280;47850;50.274;18.908;2023-05-13T10:06:35;98592.18;;;19.44;31.16
61898;BME280;47850;50.274;18.908;2023-05-13T10:09:03;98592.49;;;19.48;30.30
61898;BME280;47850;50.274;18.908;2023-05-13T10:11:33;98592.38;;;19.45;30.17
61898;BME280;47850;50.274;18.908;2023-05-13T10:14:04;98591.27;;;19.46;30.68
61898;BME280;47850;50.274;18.908;2023-05-13T10:16:32;98587.83;;;19.43;30.09
61898;BME280;47850;50.274;18.908;2023-05-13T10:19:00;98582.18;;;19.37;30.32
61898;BME280;47850;50.274;18.908;2023-05-13T10:21:29;98587.83;;;19.35;30.07
61898;BME280;47850;50.274;18.908;2023-05-13T10:23:58;98583.36;;;19.42;29.74
61898;BME280;47850;50.274;18.908;2023-05-13T10:26:28;98583.20;;;19.46;28.74
61898;BME280;47850;50.274;18.908;2023-05-13T10:28:56;98587.27;;;19.62;28.99
61898;BME280;47850;50.274;18.908;2023-05-13T10:31:24;98584.56;;;19.85;28.83
61898;BME280;47850;50.274;18.908;2023-05-13T10:33:52;98581.16;;;19.99;29.26
61898;BME280;47850;50.274;18.908;2023-05-13T10:39:11;98584.06;;;20.08;28.33
61898;BME280;47850;50.274;18.908;2023-05-13T10:44:12;98585.88;;;20.66;28.31
61898;BME280;47850;50.274;18.908;2023-05-13T10:46:41;98586.33;;;20.83;28.15
61898;BME280;47850;50.274;18.908;2023-05-13T10:49:12;98587.45;;;20.84;28.17
61898;BME280;47850;50.274;18.908;2023-05-13T10:51:45;98588.50;;;20.79;28.03
61898;BME280;47850;50.274;18.908;2023-05-13T10:54:17;98585.23;;;20.79;28.07
61898;BME280;47850;50.274;18.908;2023-05-13T10:56:46;98587.56;;;20.80;27.67
61898;BME280;47850;50.274;18.908;2023-05-13T10:59:22;98590.58;;;20.81;27.84
61898;BME280;47850;50.274;18.908;2023-05-13T11:01:49;98578.55;;;20.75;27.84
61898;BME280;47850;50.274;18.908;2023-05-13T11:04:18;98581.59;;;20.72;27.90
61898;BME280;47850;50.274;18.908;2023-05-13T11:06:47;98585.30;;;20.59;28.01
61898;BME280;47850;50.274;18.908;2023-05-13T11:11:52;98586.23;;;20.64;28.40
61898;BME280;47850;50.274;18.908;2023-05-13T11:14:21;98587.71;;;20.57;27.52
61898;BME280;47850;50.274;18.908;2023-05-13T11:16:53;98586.00;;;20.52;27.80
61898;BME280;47850;50.274;18.908;2023-05-13T11:19:31;98586.80;;;20.52;27.81
61898;BME280;47850;50.274;18.908;2023-05-13T11:22:15;98591.98;;;20.43;27.77
61898;BME280;47850;50.274;18.908;2023-05-13T11:24:45;98597.98;;;20.48;28.41
61898;BME280;47850;50.274;18.908;2023-05-13T11:27:30;98592.10;;;20.76;27.76
61898;BME280;47850;50.274;18.908;2023-05-13T11:29:59;98595.69;;;21.06;27.92
61898;BME280;47850;50.274;18.908;2023-05-13T11:35:17;98601.33;;;22.02;27.43
61898;BME280;47850;50.274;18.908;2023-05-13T11:37:45;98608.67;;;22.33;26.71
61898;BME280;47850;50.274;18.908;2023-05-13T11:40:23;98609.17;;;22.49;26.58
61898;BME280;47850;50.274;18.908;2023-05-13T11:42:51;98608.83;;;22.60;26.52
61898;BME280;47850;50.274;18.908;2023-05-13T11:45:20;98609.07;;;22.59;26.23
61898;BME280;47850;50.274;18.908;2023-05-13T11:47:49;98609.30;;;22.59;26.73
61898;BME280;47850;50.274;18.908;2023-05-13T11:50:17;98612.94;;;22.54;26.38
61898;BME280;47850;50.274;18.908;2023-05-13T11:52:52;98611.70;;;22.44;26.57
61898;BME280;47850;50.274;18.908;2023-05-13T11:55:23;98611.14;;;22.59;26.74
61898;BME280;47850;50.274;18.908;2023-05-13T11:57:52;98608.69;;;23.06;26.25
61898;BME280;47850;50.274;18.908;2023-05-13T12:00:27;98612.77;;;23.38;26.18
61898;BME280;47850;50.274;18.908;2023-05-13T12:02:55;98611.67;;;23.54;26.53
61898;BME280;47850;50.274;18.908;2023-05-13T12:05:24;98612.88;;;23.53;25.78
61898;BME280;47850;50.274;18.908;2023-05-13T12:07:55;98609.28;;;23.48;25.70
61898;BME280;47850;50.274;18.908;2023-05-13T12:10:24;98610.97;;;23.61;25.48
61898;BME280;47850;50.274;18.908;2023-05-13T12:12:52;98610.88;;;23.53;25.53
61898;BME280;47850;50.274;18.908;2023-05-13T12:15:20;98609.52;;;23.48;25.31
61898;BME280;47850;50.274;18.908;2023-05-13T12:17:48;98608.77;;;23.28;25.36
61898;BME280;47850;50.274;18.908;2023-05-13T12:20:20;98605.88;;;23.16;25.73
61898;BME280;47850;50.274;18.908;2023-05-13T12:28:20;98597.56;;;23.01;26.14
61898;BME280;47850;50.274;18.908;2023-05-13T12:33:23;98599.55;;;22.86;25.75
61898;BME280;47850;50.274;18.908;2023-05-13T12:35:52;98596.52;;;22.58;26.42
61898;BME280;47850;50.274;18.908;2023-05-13T12:38:21;98602.27;;;22.36;27.23
61898;BME280;47850;50.274;18.908;2023-05-13T12:40:50;98602.19;;;22.36;27.64
61898;BME280;47850;50.274;18.908;2023-05-13T12:43:18;98599.89;;;22.26;27.35
61898;BME280;47850;50.274;18.908;2023-05-13T12:45:47;98605.87;;;22.17;27.72
61898;BME280;47850;50.274;18.908;2023-05-13T12:48:21;98599.79;;;22.12;27.97
61898;BME280;47850;50.274;18.908;2023-05-13T12:50:49;98599.02;;;22.02;28.20
61898;BME280;47850;50.274;18.908;2023-05-13T12:53:17;98595.13;;;21.91;28.29
61898;BME280;47850;50.274;18.908;2023-05-13T12:55:45;98595.25;;;21.84;28.11
61898;BME280;47850;50.274;18.908;2023-05-13T12:58:13;98593.33;;;21.71;28.26
61898;BME280;47850;50.274;18.908;2023-05-13T13:00:40;98595.09;;;21.50;28.74
61898;BME280;47850;50.274;18.908;2023-05-13T13:03:08;98594.27;;;21.37;29.49
61898;BME280;47850;50.274;18.908;2023-05-13T13:05:36;98594.52;;;21.24;29.00
61898;BME280;47850;50.274;18.908;2023-05-13T13:08:04;98590.70;;;20.99;29.28
61898;BME280;47850;50.274;18.908;2023-05-13T13:10:31;98588.48;;;20.78;29.89
61898;BME280;47850;50.274;18.908;2023-05-13T13:12:59;98587.45;;;20.67;30.25
61898;BME280;47850;50.274;18.908;2023-05-13T13:15:27;98587.64;;;20.57;30.59
61898;BME280;47850;50.274;18.908;2023-05-13T13:17:55;98585.88;;;20.43;30.68
61898;BME280;47850;50.274;18.908;2023-05-13T13:20:23;98579.89;;;20.33;30.94
61898;BME280;47850;50.274;18.908;2023-05-13T13:22:51;98578.54;;;20.21;30.45
61898;BME280;47850;50.274;18.908;2023-05-13T13:25:19;98575.38;;;20.10;31.43